Terminal Aerodrome Forecast
Issued by NWS

Home | Current Version | Previous Version | Text Only | Print | Product List | Glossary On
Versions: 1 2 3 4 5 6 7 8 9 10 11 12 13 14 15 16 17 18 19 20 21 22
690
FTUS41 KBTV 190536
TAFMSS
TAF
KMSS 190536Z 1906/2006 25006KT P6SM BKN035 OVC050
     FM190900 26004KT P6SM BKN030
     FM191200 27005KT P6SM BKN015
     FM191700 29008KT P6SM VCSH OVC020=

USA.gov is the U.S. government's official web portal to all federal, state and local government web resources and services.